sensor_id;sensor_type;location;lat;lon;timestamp;pressure;altitude;pressure_sealevel;temperature;humidity
12452;BME280;72521;48.924;12.204;2024-02-28T00:01:31;82072.75;;;4.59;76.58
12452;BME280;72521;48.924;12.204;2024-02-28T00:06:35;81763.94;;;4.51;76.33
12452;BME280;72521;48.924;12.204;2024-02-28T00:11:43;81461.06;;;4.38;76.12
12452;BME280;72521;48.924;12.204;2024-02-28T00:16:49;81098.41;;;4.32;75.78
12452;BME280;72521;48.924;12.204;2024-02-28T00:21:53;80789.25;;;4.23;75.62
12452;BME280;72521;48.924;12.204;2024-02-28T00:26:58;80446.38;;;4.20;75.42
12452;BME280;72521;48.924;12.204;2024-02-28T00:32:05;80055.28;;;4.14;75.29
12452;BME280;72521;48.924;12.204;2024-02-28T00:37:09;79728.88;;;4.07;75.22
12452;BME280;72521;48.924;12.204;2024-02-28T00:42:13;79576.53;;;4.00;75.17
12452;BME280;72521;48.924;12.204;2024-02-28T00:47:19;79231.94;;;3.98;75.10
12452;BME280;72521;48.924;12.204;2024-02-28T00:52:23;78870.47;;;3.94;75.02
12452;BME280;72521;48.924;12.204;2024-02-28T00:57:28;78678.06;;;3.82;74.98
12452;BME280;72521;48.924;12.204;2024-02-28T01:02:34;78348.91;;;3.73;74.91
12452;BME280;72521;48.924;12.204;2024-02-28T01:07:39;78041.78;;;3.69;74.87
12452;BME280;72521;48.924;12.204;2024-02-28T01:12:43;77746.56;;;3.62;74.83
12452;BME280;72521;48.924;12.204;2024-02-28T01:17:48;77495.09;;;3.54;74.80
12452;BME280;72521;48.924;12.204;2024-02-28T01:22:52;77165.38;;;3.51;74.76
12452;BME280;72521;48.924;12.204;2024-02-28T01:27:57;76821.88;;;3.51;74.72
12452;BME280;72521;48.924;12.204;2024-02-28T01:33:03;76627.72;;;3.45;74.72
12452;BME280;72521;48.924;12.204;2024-02-28T01:38:08;76295.16;;;3.48;74.69
12452;BME280;72521;48.924;12.204;2024-02-28T01:43:12;76050.69;;;3.37;74.66
12452;BME280;72521;48.924;12.204;2024-02-28T01:48:18;75732.59;;;3.39;74.66
12452;BME280;72521;48.924;12.204;2024-02-28T01:53:23;75417.34;;;3.29;74.63
12452;BME280;72521;48.924;12.204;2024-02-28T01:58:27;75241.72;;;3.15;74.60
12452;BME280;72521;48.924;12.204;2024-02-28T02:03:33;74974.38;;;3.18;74.60
12452;BME280;72521;48.924;12.204;2024-02-28T02:08:38;74678.00;;;3.18;74.58
12452;BME280;72521;48.924;12.204;2024-02-28T02:13:48;74427.50;;;3.21;74.56
12452;BME280;72521;48.924;12.204;2024-02-28T02:18:54;74208.75;;;3.12;74.56
12452;BME280;72521;48.924;12.204;2024-02-28T02:24:00;73906.69;;;3.12;74.53
12452;BME280;72521;48.924;12.204;2024-02-28T02:29:04;73707.50;;;3.04;74.53
12452;BME280;72521;48.924;12.204;2024-02-28T02:34:08;73438.31;;;3.00;74.51
12452;BME280;72521;48.924;12.204;2024-02-28T02:39:13;73214.31;;;2.99;74.51
12452;BME280;72521;48.924;12.204;2024-02-28T02:44:18;72942.41;;;2.98;74.49
12452;BME280;72521;48.924;12.204;2024-02-28T02:49:22;72788.47;;;2.93;74.48
12452;BME280;72521;48.924;12.204;2024-02-28T02:54:27;72552.16;;;2.93;74.48
12452;BME280;72521;48.924;12.204;2024-02-28T02:59:31;72313.53;;;2.95;74.47
12452;BME280;72521;48.924;12.204;2024-02-28T03:04:35;72088.81;;;3.01;74.47
12452;BME280;72521;48.924;12.204;2024-02-28T03:09:40;71854.81;;;3.03;74.46
12452;BME280;72521;48.924;12.204;2024-02-28T03:14:44;71661.75;;;3.09;74.46
12452;BME280;72521;48.924;12.204;2024-02-28T03:19:48;71429.19;;;3.15;74.46
12452;BME280;72521;48.924;12.204;2024-02-28T03:24:54;71116.81;;;3.28;74.46
12452;BME280;72521;48.924;12.204;2024-02-28T03:29:59;70882.69;;;3.34;74.45
12452;BME280;72521;48.924;12.204;2024-02-28T03:35:05;70738.84;;;3.41;74.46
12452;BME280;72521;48.924;12.204;2024-02-28T03:40:13;70449.94;;;3.40;74.45
12452;BME280;72521;48.924;12.204;2024-02-28T03:45:17;70321.84;;;3.37;74.45
12452;BME280;72521;48.924;12.204;2024-02-28T03:50:22;70122.19;;;3.47;74.45
12452;BME280;72521;48.924;12.204;2024-02-28T03:55:28;69928.94;;;3.53;74.46
12452;BME280;72521;48.924;12.204;2024-02-28T04:00:32;69662.94;;;3.66;74.47
12452;BME280;72521;48.924;12.204;2024-02-28T04:05:36;69517.66;;;3.76;74.47
12452;BME280;72521;48.924;12.204;2024-02-28T04:10:41;69184.34;;;3.94;74.47
12452;BME280;72521;48.924;12.204;2024-02-28T04:15:46;68810.34;;;4.06;74.47
12452;BME280;72521;48.924;12.204;2024-02-28T04:20:49;68641.56;;;4.08;74.47
12452;BME280;72521;48.924;12.204;2024-02-28T04:25:55;68413.09;;;4.14;74.47
12452;BME280;72521;48.924;12.204;2024-02-28T04:30:59;68160.72;;;4.28;74.48
12452;BME280;72521;48.924;12.204;2024-02-28T04:36:03;67973.25;;;4.32;74.47
12452;BME280;72521;48.924;12.204;2024-02-28T04:41:09;67774.69;;;4.34;74.49
12452;BME280;72521;48.924;12.204;2024-02-28T04:46:13;67634.19;;;4.31;74.47
12452;BME280;72521;48.924;12.204;2024-02-28T04:51:17;67589.63;;;4.24;74.47
12452;BME280;72521;48.924;12.204;2024-02-28T04:56:23;67461.22;;;4.35;74.48
12452;BME280;72521;48.924;12.204;2024-02-28T05:01:27;67317.34;;;4.39;74.48
12452;BME280;72521;48.924;12.204;2024-02-28T05:06:31;67351.16;;;4.27;74.46
12452;BME280;72521;48.924;12.204;2024-02-28T05:11:38;67274.50;;;4.21;74.46
12452;BME280;72521;48.924;12.204;2024-02-28T05:16:43;67234.00;;;4.22;74.48
12452;BME280;72521;48.924;12.204;2024-02-28T05:21:47;67178.06;;;4.13;74.46
12452;BME280;72521;48.924;12.204;2024-02-28T05:26:53;67083.97;;;4.13;74.47
12452;BME280;72521;48.924;12.204;2024-02-28T05:31:57;67019.44;;;4.10;74.47
12452;BME280;72521;48.924;12.204;2024-02-28T05:37:02;66982.88;;;4.05;74.46
12452;BME280;72521;48.924;12.204;2024-02-28T05:42:07;66897.22;;;4.08;74.46
12452;BME280;72521;48.924;12.204;2024-02-28T05:47:12;66796.78;;;4.19;74.47
12452;BME280;72521;48.924;12.204;2024-02-28T05:52:16;66715.47;;;4.28;74.48
12452;BME280;72521;48.924;12.204;2024-02-28T05:57:21;66716.66;;;4.17;74.48
12452;BME280;72521;48.924;12.204;2024-02-28T06:02:26;66621.28;;;4.25;74.47
12452;BME280;72521;48.924;12.204;2024-02-28T06:07:30;66606.78;;;4.26;74.47
12452;BME280;72521;48.924;12.204;2024-02-28T06:12:36;66556.47;;;4.30;74.47
12452;BME280;72521;48.924;12.204;2024-02-28T06:17:40;66538.75;;;4.28;74.48
12452;BME280;72521;48.924;12.204;2024-02-28T06:22:44;66580.47;;;4.33;74.47
12452;BME280;72521;48.924;12.204;2024-02-28T06:27:49;66534.75;;;4.34;74.48
12452;BME280;72521;48.924;12.204;2024-02-28T06:32:54;66600.97;;;4.23;74.47
12452;BME280;72521;48.924;12.204;2024-02-28T06:37:58;66551.13;;;4.25;74.48
12452;BME280;72521;48.924;12.204;2024-02-28T06:43:03;66551.13;;;4.25;74.49
12452;BME280;72521;48.924;12.204;2024-02-28T06:48:08;66539.66;;;4.24;74.48
12452;BME280;72521;48.924;12.204;2024-02-28T06:53:13;66480.78;;;4.37;74.49
12452;BME280;72521;48.924;12.204;2024-02-28T06:58:18;66487.03;;;4.38;74.49
12452;BME280;72521;48.924;12.204;2024-02-28T07:03:22;66425.00;;;4.31;74.48
12452;BME280;72521;48.924;12.204;2024-02-28T07:08:26;66493.78;;;4.37;74.49
12452;BME280;72521;48.924;12.204;2024-02-28T07:13:31;66522.81;;;4.35;74.49
12452;BME280;72521;48.924;12.204;2024-02-28T07:18:35;66522.28;;;4.34;74.50
12452;BME280;72521;48.924;12.204;2024-02-28T07:23:40;66479.38;;;4.43;74.50
12452;BME280;72521;48.924;12.204;2024-02-28T07:28:45;66516.56;;;4.34;74.49
12452;BME280;72521;48.924;12.204;2024-02-28T07:33:52;66492.00;;;4.47;74.50
12452;BME280;72521;48.924;12.204;2024-02-28T07:38:56;66519.97;;;4.44;74.49
12452;BME280;72521;48.924;12.204;2024-02-28T07:44:02;66477.06;;;4.53;74.51
12452;BME280;72521;48.924;12.204;2024-02-28T07:49:06;66490.84;;;4.64;74.52
12452;BME280;72521;48.924;12.204;2024-02-28T07:54:10;66516.66;;;4.56;74.51
12452;BME280;72521;48.924;12.204;2024-02-28T07:59:16;66530.28;;;4.79;74.52
12452;BME280;72521;48.924;12.204;2024-02-28T08:04:20;66653.84;;;4.70;74.52
12452;BME280;72521;48.924;12.204;2024-02-28T08:09:24;66741.44;;;4.77;74.53
12452;BME280;72521;48.924;12.204;2024-02-28T08:14:29;66812.88;;;4.83;74.54
12452;BME280;72521;48.924;12.204;2024-02-28T08:19:33;66882.31;;;4.90;74.54
12452;BME280;72521;48.924;12.204;2024-02-28T08:24:38;67001.88;;;4.87;74.55
12452;BME280;72521;48.924;12.204;2024-02-28T08:29:43;67083.06;;;4.88;74.55
12452;BME280;72521;48.924;12.204;2024-02-28T08:34:48;67110.53;;;5.13;74.57
12452;BME280;72521;48.924;12.204;2024-02-28T08:39:52;67290.81;;;5.04;74.58
12452;BME280;72521;48.924;12.204;2024-02-28T08:44:59;67384.44;;;5.29;74.59
12452;BME280;72521;48.924;12.204;2024-02-28T08:50:04;67609.09;;;4.98;74.58
12452;BME280;72521;48.924;12.204;2024-02-28T08:55:08;67755.25;;;4.96;74.57
12452;BME280;72521;48.924;12.204;2024-02-28T09:00:15;67890.16;;;4.98;74.59
12452;BME280;72521;48.924;12.204;2024-02-28T09:05:20;68006.16;;;5.06;74.59
12452;BME280;72521;48.924;12.204;2024-02-28T09:10:24;68078.47;;;5.15;74.61
12452;BME280;72521;48.924;12.204;2024-02-28T09:15:30;68225.34;;;5.26;74.62
12452;BME280;72521;48.924;12.204;2024-02-28T09:20:35;68461.63;;;5.23;74.62
12452;BME280;72521;48.924;12.204;2024-02-28T09:25:39;68616.03;;;5.36;74.64
12452;BME280;72521;48.924;12.204;2024-02-28T09:30:45;68817.16;;;5.36;74.64
12452;BME280;72521;48.924;12.204;2024-02-28T09:35:55;69021.06;;;5.39;74.67
12452;BME280;72521;48.924;12.204;2024-02-28T09:40:59;69234.50;;;5.37;74.68
12452;BME280;72521;48.924;12.204;2024-02-28T09:46:05;69390.22;;;5.50;74.70
12452;BME280;72521;48.924;12.204;2024-02-28T09:51:14;69612.84;;;5.51;74.71
12452;BME280;72521;48.924;12.204;2024-02-28T09:56:22;69743.03;;;5.63;74.72
12452;BME280;72521;48.924;12.204;2024-02-28T10:01:28;69883.91;;;5.84;74.75
12452;BME280;72521;48.924;12.204;2024-02-28T10:06:33;70004.94;;;6.37;74.79
12452;BME280;72521;48.924;12.204;2024-02-28T10:11:37;70586.53;;;5.97;74.81
12452;BME280;72521;48.924;12.204;2024-02-28T10:16:46;70607.31;;;6.37;74.84
12452;BME280;72521;48.924;12.204;2024-02-28T10:21:50;71162.31;;;6.10;74.86
12452;BME280;72521;48.924;12.204;2024-02-28T10:26:54;71381.44;;;6.40;74.91
12452;BME280;72521;48.924;12.204;2024-02-28T10:32:00;71821.41;;;6.14;74.92
12452;BME280;72521;48.924;12.204;2024-02-28T10:37:06;72040.88;;;6.39;74.96
12452;BME280;72521;48.924;12.204;2024-02-28T10:42:11;72398.16;;;6.66;75.01
12452;BME280;72521;48.924;12.204;2024-02-28T10:47:18;72927.81;;;6.77;75.07
12452;BME280;72521;48.924;12.204;2024-02-28T10:52:23;73585.47;;;6.58;75.17
12452;BME280;72521;48.924;12.204;2024-02-28T10:57:29;73720.06;;;7.01;75.22
12452;BME280;72521;48.924;12.204;2024-02-28T11:02:35;74540.25;;;6.74;75.42
12452;BME280;72521;48.924;12.204;2024-02-28T11:07:41;74862.63;;;6.86;75.52
12452;BME280;72521;48.924;12.204;2024-02-28T11:12:54;75634.63;;;6.73;75.86
12452;BME280;72521;48.924;12.204;2024-02-28T11:18:09;76093.03;;;6.80;76.21
12452;BME280;72521;48.924;12.204;2024-02-28T11:23:13;76834.44;;;6.64;76.81
12452;BME280;72521;48.924;12.204;2024-02-28T11:28:18;77342.00;;;6.41;77.28
12452;BME280;72521;48.924;12.204;2024-02-28T11:33:28;77945.63;;;6.36;77.84
12452;BME280;72521;48.924;12.204;2024-02-28T11:38:34;78538.53;;;6.23;78.48
12452;BME280;72521;48.924;12.204;2024-02-28T11:43:41;78844.00;;;6.73;78.88
12452;BME280;72521;48.924;12.204;2024-02-28T11:48:55;79609.50;;;6.49;79.98
12452;BME280;72521;48.924;12.204;2024-02-28T11:54:01;79990.56;;;6.68;80.63
12452;BME280;72521;48.924;12.204;2024-02-28T11:59:05;80600.41;;;6.85;82.07
12452;BME280;72521;48.924;12.204;2024-02-28T12:04:12;81174.63;;;6.99;83.86
12452;BME280;72521;48.924;12.204;2024-02-28T12:09:16;81791.66;;;7.02;86.21
12452;BME280;72521;48.924;12.204;2024-02-28T12:14:32;82659.06;;;6.75;89.96
12452;BME280;72521;48.924;12.204;2024-02-28T12:19:43;83243.28;;;6.55;92.59
12452;BME280;72521;48.924;12.204;2024-02-28T12:24:47;83516.19;;;6.85;93.91
12452;BME280;72521;48.924;12.204;2024-02-28T12:29:52;83948.84;;;6.89;95.81
12452;BME280;72521;48.924;12.204;2024-02-28T12:34:57;84408.53;;;6.70;98.93
12452;BME280;72521;48.924;12.204;2024-02-28T12:40:01;84686.59;;;6.97;100.00
12452;BME280;72521;48.924;12.204;2024-02-28T12:45:08;85219.81;;;6.52;100.00
12452;BME280;72521;48.924;12.204;2024-02-28T12:50:13;85459.97;;;6.66;100.00
12452;BME280;72521;48.924;12.204;2024-02-28T12:55:17;85723.06;;;6.88;100.00
12452;BME280;72521;48.924;12.204;2024-02-28T13:00:21;85991.25;;;6.89;100.00
12452;BME280;72521;48.924;12.204;2024-02-28T13:05:26;86296.19;;;6.89;100.00
12452;BME280;72521;48.924;12.204;2024-02-28T13:10:34;86508.44;;;7.02;100.00
12452;BME280;72521;48.924;12.204;2024-02-28T13:15:40;86870.09;;;6.91;100.00
12452;BME280;72521;48.924;12.204;2024-02-28T13:20:45;87211.94;;;6.73;100.00
12452;BME280;72521;48.924;12.204;2024-02-28T13:25:49;87398.44;;;6.69;100.00
12452;BME280;72521;48.924;12.204;2024-02-28T13:30:53;87642.03;;;6.54;100.00
12452;BME280;72521;48.924;12.204;2024-02-28T13:35:58;87761.41;;;6.60;100.00
12452;BME280;72521;48.924;12.204;2024-02-28T13:41:02;87820.53;;;6.86;100.00
12452;BME280;72521;48.924;12.204;2024-02-28T13:46:06;87977.00;;;6.83;100.00
12452;BME280;72521;48.924;12.204;2024-02-28T13:51:11;88129.91;;;6.84;100.00
12452;BME280;72521;48.924;12.204;2024-02-28T13:56:15;88276.81;;;6.84;100.00
12452;BME280;72521;48.924;12.204;2024-02-28T14:01:19;88466.94;;;6.77;100.00
12452;BME280;72521;48.924;12.204;2024-02-28T14:06:25;88585.94;;;6.74;100.00
12452;BME280;72521;48.924;12.204;2024-02-28T14:11:30;88707.25;;;6.58;100.00
12452;BME280;72521;48.924;12.204;2024-02-28T14:16:34;88840.28;;;6.52;100.00
12452;BME280;72521;48.924;12.204;2024-02-28T14:21:39;88859.56;;;6.49;100.00
12452;BME280;72521;48.924;12.204;2024-02-28T14:26:43;88935.75;;;6.40;100.00
12452;BME280;72521;48.924;12.204;2024-02-28T14:31:47;88819.78;;;6.56;100.00
12452;BME280;72521;48.924;12.204;2024-02-28T14:36:52;88927.03;;;6.48;100.00
12452;BME280;72521;48.924;12.204;2024-02-28T14:41:56;88977.31;;;6.26;100.00
12452;BME280;72521;48.924;12.204;2024-02-28T14:47:00;88953.69;;;6.47;100.00
12452;BME280;72521;48.924;12.204;2024-02-28T14:52:06;89040.97;;;6.47;100.00
12452;BME280;72521;48.924;12.204;2024-02-28T14:57:10;89106.94;;;6.40;100.00
12452;BME280;72521;48.924;12.204;2024-02-28T15:02:14;89182.00;;;6.38;100.00
12452;BME280;72521;48.924;12.204;2024-02-28T15:07:20;89301.19;;;6.22;100.00
12452;BME280;72521;48.924;12.204;2024-02-28T15:12:23;89322.69;;;6.11;100.00
12452;BME280;72521;48.924;12.204;2024-02-28T15:17:28;89271.91;;;6.23;100.00
12452;BME280;72521;48.924;12.204;2024-02-28T15:22:33;89327.75;;;6.29;100.00
12452;BME280;72521;48.924;12.204;2024-02-28T15:27:37;89433.44;;;6.21;100.00
12452;BME280;72521;48.924;12.204;2024-02-28T15:32:41;89500.59;;;6.18;100.00
12452;BME280;72521;48.924;12.204;2024-02-28T15:37:46;89676.78;;;5.89;100.00
12452;BME280;72521;48.924;12.204;2024-02-28T15:42:50;89640.22;;;5.95;100.00
12452;BME280;72521;48.924;12.204;2024-02-28T15:47:54;89718.28;;;5.91;100.00
12452;BME280;72521;48.924;12.204;2024-02-28T15:52:59;89757.28;;;5.71;100.00
12452;BME280;72521;48.924;12.204;2024-02-28T15:58:05;89781.72;;;5.77;100.00
12452;BME280;72521;48.924;12.204;2024-02-28T16:03:09;89817.41;;;5.74;100.00
12452;BME280;72521;48.924;12.204;2024-02-28T16:08:15;89804.00;;;5.81;100.00
12452;BME280;72521;48.924;12.204;2024-02-28T16:13:19;89893.63;;;5.67;100.00
12452;BME280;72521;48.924;12.204;2024-02-28T16:18:23;89944.13;;;5.58;100.00
12452;BME280;72521;48.924;12.204;2024-02-28T16:23:29;90005.47;;;5.48;100.00
12452;BME280;72521;48.924;12.204;2024-02-28T16:28:33;89953.56;;;5.47;100.00
12452;BME280;72521;48.924;12.204;2024-02-28T16:33:37;89886.91;;;5.48;100.00
12452;BME280;72521;48.924;12.204;2024-02-28T16:38:44;89932.59;;;5.47;100.00
12452;BME280;72521;48.924;12.204;2024-02-28T16:43:50;89999.78;;;5.41;100.00
12452;BME280;72521;48.924;12.204;2024-02-28T16:48:57;89998.81;;;5.47;100.00
12452;BME280;72521;48.924;12.204;2024-02-28T16:54:03;90000.84;;;5.52;100.00
12452;BME280;72521;48.924;12.204;2024-02-28T16:59:08;90061.59;;;5.38;100.00
12452;BME280;72521;48.924;12.204;2024-02-28T17:04:14;90093.94;;;5.44;100.00
12452;BME280;72521;48.924;12.204;2024-02-28T17:09:20;90173.78;;;5.40;100.00
12452;BME280;72521;48.924;12.204;2024-02-28T17:14:24;90177.69;;;5.35;100.00
12452;BME280;72521;48.924;12.204;2024-02-28T17:19:28;90168.78;;;5.33;100.00
12452;BME280;72521;48.924;12.204;2024-02-28T17:24:33;90125.31;;;5.35;100.00
12452;BME280;72521;48.924;12.204;2024-02-28T17:29:38;90101.00;;;5.35;100.00
12452;BME280;72521;48.924;12.204;2024-02-28T17:34:42;90090.34;;;5.29;100.00
12452;BME280;72521;48.924;12.204;2024-02-28T17:39:55;90056.59;;;5.31;100.00
12452;BME280;72521;48.924;12.204;2024-02-28T17:44:59;90020.81;;;5.28;100.00
12452;BME280;72521;48.924;12.204;2024-02-28T17:50:05;90000.72;;;5.25;100.00
12452;BME280;72521;48.924;12.204;2024-02-28T17:55:11;89980.81;;;5.28;100.00
12452;BME280;72521;48.924;12.204;2024-02-28T18:00:18;89955.19;;;5.22;100.00
12452;BME280;72521;48.924;12.204;2024-02-28T18:05:29;89939.63;;;5.19;100.00
12452;BME280;72521;48.924;12.204;2024-02-28T18:10:36;89902.34;;;5.15;100.00
12452;BME280;72521;48.924;12.204;2024-02-28T18:15:40;89903.78;;;5.07;100.00
12452;BME280;72521;48.924;12.204;2024-02-28T18:20:46;89874.25;;;5.06;100.00
12452;BME280;72521;48.924;12.204;2024-02-28T18:25:52;89828.56;;;4.98;100.00
12452;BME280;72521;48.924;12.204;2024-02-28T18:30:56;89752.25;;;5.00;100.00
12452;BME280;72521;48.924;12.204;2024-02-28T18:36:01;89686.84;;;5.00;100.00
12452;BME280;72521;48.924;12.204;2024-02-28T18:41:07;89625.75;;;5.03;100.00
12452;BME280;72521;48.924;12.204;2024-02-28T18:46:11;89589.72;;;5.07;99.55
12452;BME280;72521;48.924;12.204;2024-02-28T18:51:18;89528.63;;;5.10;98.93
12452;BME280;72521;48.924;12.204;2024-02-28T18:56:23;89559.31;;;5.09;99.17
12452;BME280;72521;48.924;12.204;2024-02-28T19:01:27;89567.44;;;5.11;99.22
12452;BME280;72521;48.924;12.204;2024-02-28T19:06:31;89567.31;;;5.15;99.17
12452;BME280;72521;48.924;12.204;2024-02-28T19:11:37;89571.53;;;5.12;99.56
12452;BME280;72521;48.924;12.204;2024-02-28T19:16:41;89580.09;;;5.13;99.81
12452;BME280;72521;48.924;12.204;2024-02-28T19:21:45;89606.44;;;5.09;100.00
12452;BME280;72521;48.924;12.204;2024-02-28T19:26:52;89635.06;;;5.13;100.00
12452;BME280;72521;48.924;12.204;2024-02-28T19:31:56;89686.25;;;5.14;100.00
12452;BME280;72521;48.924;12.204;2024-02-28T19:37:01;89737.56;;;5.11;100.00
12452;BME280;72521;48.924;12.204;2024-02-28T19:42:06;89807.25;;;5.09;100.00
12452;BME280;72521;48.924;12.204;2024-02-28T19:47:10;89831.38;;;5.13;100.00
12452;BME280;72521;48.924;12.204;2024-02-28T19:52:14;89875.00;;;5.07;100.00
12452;BME280;72521;48.924;12.204;2024-02-28T19:57:19;89898.69;;;5.12;100.00
12452;BME280;72521;48.924;12.204;2024-02-28T20:02:23;89950.31;;;5.12;100.00
12452;BME280;72521;48.924;12.204;2024-02-28T20:07:29;89998.91;;;5.13;100.00
12452;BME280;72521;48.924;12.204;2024-02-28T20:12:34;90015.03;;;5.11;100.00
12452;BME280;72521;48.924;12.204;2024-02-28T20:17:38;90072.44;;;5.06;100.00
12452;BME280;72521;48.924;12.204;2024-02-28T20:22:43;90075.00;;;4.97;100.00
12452;BME280;72521;48.924;12.204;2024-02-28T20:27:50;90065.13;;;5.01;100.00
12452;BME280;72521;48.924;12.204;2024-02-28T20:32:54;90060.94;;;5.03;100.00
12452;BME280;72521;48.924;12.204;2024-02-28T20:37:58;90061.97;;;5.06;100.00
12452;BME280;72521;48.924;12.204;2024-02-28T20:43:04;90047.38;;;4.96;100.00
12452;BME280;72521;48.924;12.204;2024-02-28T20:48:08;90051.63;;;5.02;100.00
12452;BME280;72521;48.924;12.204;2024-02-28T20:53:12;90098.13;;;4.98;100.00
12452;BME280;72521;48.924;12.204;2024-02-28T20:58:19;90062.34;;;4.95;100.00
12452;BME280;72521;48.924;12.204;2024-02-28T21:03:23;90002.03;;;4.99;100.00
12452;BME280;72521;48.924;12.204;2024-02-28T21:08:27;90031.28;;;4.84;100.00
12452;BME280;72521;48.924;12.204;2024-02-28T21:13:33;89978.78;;;4.79;100.00
12452;BME280;72521;48.924;12.204;2024-02-28T21:18:37;89899.16;;;4.80;98.13
12452;BME280;72521;48.924;12.204;2024-02-28T21:23:41;89810.94;;;4.80;96.59
12452;BME280;72521;48.924;12.204;2024-02-28T21:28:47;89775.28;;;4.74;95.61
12452;BME280;72521;48.924;12.204;2024-02-28T21:33:50;89701.19;;;4.77;94.59
12452;BME280;72521;48.924;12.204;2024-02-28T21:38:55;89650.44;;;4.74;94.00
12452;BME280;72521;48.924;12.204;2024-02-28T21:44:02;89601.78;;;4.77;93.28
12452;BME280;72521;48.924;12.204;2024-02-28T21:49:06;89567.91;;;4.73;92.84
12452;BME280;72521;48.924;12.204;2024-02-28T21:54:15;89527.81;;;4.76;92.31
12452;BME280;72521;48.924;12.204;2024-02-28T21:59:20;89492.63;;;4.77;91.81
12452;BME280;72521;48.924;12.204;2024-02-28T22:04:24;89430.41;;;4.81;91.23
12452;BME280;72521;48.924;12.204;2024-02-28T22:09:28;89380.31;;;4.74;90.92
12452;BME280;72521;48.924;12.204;2024-02-28T22:14:34;89392.66;;;4.73;91.04
12452;BME280;72521;48.924;12.204;2024-02-28T22:19:38;89467.34;;;4.65;91.03
12452;BME280;72521;48.924;12.204;2024-02-28T22:24:42;89329.47;;;4.66;90.00
12452;BME280;72521;48.924;12.204;2024-02-28T22:29:48;89192.38;;;4.81;89.01
12452;BME280;72521;48.924;12.204;2024-02-28T22:34:52;89203.84;;;4.84;88.77
12452;BME280;72521;48.924;12.204;2024-02-28T22:39:57;89166.00;;;4.70;88.37
12452;BME280;72521;48.924;12.204;2024-02-28T22:45:03;89106.31;;;4.69;88.17
12452;BME280;72521;48.924;12.204;2024-02-28T22:50:08;89181.69;;;4.70;88.48
12452;BME280;72521;48.924;12.204;2024-02-28T22:55:12;89114.88;;;4.69;88.37
12452;BME280;72521;48.924;12.204;2024-02-28T23:00:23;88962.19;;;4.96;88.36
12452;BME280;72521;48.924;12.204;2024-02-28T23:05:35;89137.88;;;5.04;90.45
12452;BME280;72521;48.924;12.204;2024-02-28T23:10:39;89335.28;;;5.03;92.61
12452;BME280;72521;48.924;12.204;2024-02-28T23:15:44;89434.75;;;4.94;93.88
12452;BME280;72521;48.924;12.204;2024-02-28T23:20:48;89524.16;;;4.92;94.79
12452;BME280;72521;48.924;12.204;2024-02-28T23:25:52;89551.75;;;4.93;95.41
12452;BME280;72521;48.924;12.204;2024-02-28T23:30:57;89617.47;;;4.95;95.85
12452;BME280;72521;48.924;12.204;2024-02-28T23:36:01;89667.78;;;4.90;96.61
12452;BME280;72521;48.924;12.204;2024-02-28T23:41:06;89764.41;;;4.84;97.16
12452;BME280;72521;48.924;12.204;2024-02-28T23:46:11;89688.25;;;4.92;97.38
12452;BME280;72521;48.924;12.204;2024-02-28T23:51:15;89846.28;;;4.94;100.00
12452;BME280;72521;48.924;12.204;2024-02-28T23:56:21;89950.84;;;4.98;100.00
